Time;durP1;ratioP1;P1;durP2;ratioP2;P2;SDS_P1;SDS_P2;PMS_P1;PMS_P2;Temp;Humidity;BMP_temperature;BMP_pressure;BME280_temperature;BME280_humidity;BME280_pressure;Samples;Min_cycle;Max_cycle;Signal;HPM_P1;HPM_P2
2022/08/08 00:00:17;;;;;;;1.25;0.75;;;15.00;70.50;;;;;;5089379;28;20028;-88
2022/08/08 00:02:49;;;;;;;2.60;0.60;;;14.90;70.50;;;;;;5010748;28;20091;-87
2022/08/08 00:05:35;;;;;;;0.85;0.70;;;14.90;70.20;;;;;;5076982;28;20055;-86
2022/08/08 00:08:08;;;;;;;0.80;0.60;;;14.90;70.20;;;;;;5084132;28;20099;-87
2022/08/08 00:10:43;;;;;;;1.10;0.75;;;14.80;70.90;;;;;;5091892;28;20031;-88
2022/08/08 00:13:39;;;;;;;1.92;0.70;;;14.70;71.30;;;;;;5073933;28;20108;-87
2022/08/08 00:16:10;;;;;;;1.40;0.60;;;14.70;73.50;;;;;;5084485;28;20032;-88
2022/08/08 00:18:50;;;;;;;1.10;0.80;;;14.50;72.80;;;;;;5074810;28;20032;-88
2022/08/08 00:21:22;;;;;;;1.42;0.80;;;14.50;73.30;;;;;;5081304;28;20451;-87
2022/08/08 00:23:56;;;;;;;3.80;0.80;;;14.40;74.00;;;;;;5090082;28;20050;-87
2022/08/08 00:26:33;;;;;;;3.80;0.75;;;14.30;75.10;;;;;;5083370;28;20062;-86
2022/08/08 00:29:22;;;;;;;3.08;0.73;;;14.20;75.60;;;;;;5090923;28;20020;-87
2022/08/08 00:31:52;;;;;;;2.47;0.70;;;14.10;74.80;;;;;;5080139;28;20152;-87
2022/08/08 00:35:10;;;;;;;1.73;0.60;;;14.00;74.90;;;;;;5074580;28;20554;-88
2022/08/08 00:37:50;;;;;;;2.88;0.98;;;14.00;76.00;;;;;;5082656;28;20064;-88
2022/08/08 00:40:28;;;;;;;1.33;0.60;;;13.90;76.60;;;;;;5087174;28;20028;-86
2022/08/08 00:43:27;;;;;;;1.02;0.70;;;13.80;76.70;;;;;;5075748;28;20481;-87
2022/08/08 00:46:23;;;;;;;1.05;0.70;;;13.80;76.20;;;;;;5090706;28;20028;-88
2022/08/08 00:48:55;;;;;;;0.73;0.70;;;13.70;76.70;;;;;;5083889;28;20013;-86
2022/08/08 00:51:36;;;;;;;0.95;0.73;;;13.60;76.90;;;;;;5091197;28;20028;-88
2022/08/08 00:54:05;;;;;;;;;;;13.50;76.90;;;;;;5082265;28;20123;-88
2022/08/08 00:57:01;;;;;;;1.52;0.60;;;13.40;77.30;;;;;;5073706;28;20005;-88
2022/08/08 00:59:52;;;;;;;1.60;0.73;;;13.40;76.90;;;;;;5092087;28;20039;-87
2022/08/08 01:02:55;;;;;;;0.85;0.65;;;13.30;77.60;;;;;;5076059;28;20029;-87
2022/08/08 01:05:30;;;;;;;0.80;0.70;;;13.20;78.00;;;;;;5054022;28;20447;-87
2022/08/08 01:08:29;;;;;;;3.67;0.90;;;13.20;79.00;;;;;;5083934;28;20025;-87
2022/08/08 01:11:13;;;;;;;2.08;0.63;;;13.10;79.20;;;;;;5080251;28;20020;-88
2022/08/08 01:14:00;;;;;;;0.70;0.70;;;13.00;79.80;;;;;;5083624;28;20024;-88
2022/08/08 01:16:44;;;;;;;1.13;0.90;;;13.00;81.60;;;;;;5053364;28;20126;-87
2022/08/08 01:19:22;;;;;;;1.38;1.10;;;12.90;83.40;;;;;;5098534;28;20051;-87
2022/08/08 01:22:03;;;;;;;4.63;0.80;;;12.90;83.20;;;;;;5071548;28;20040;-88
2022/08/08 01:24:57;;;;;;;1.25;0.90;;;12.90;83.60;;;;;;5091074;28;20032;-88
2022/08/08 01:27:23;;;;;;;2.08;0.80;;;12.90;85.80;;;;;;5074379;28;20036;-89
2022/08/08 01:30:07;;;;;;;1.48;1.10;;;12.80;86.80;;;;;;5086082;28;20119;-87
2022/08/08 01:32:51;;;;;;;1.33;0.88;;;12.80;87.10;;;;;;5072425;28;20539;-87
2022/08/08 01:35:31;;;;;;;1.75;0.95;;;12.80;87.40;;;;;;5068543;28;20032;-86
2022/08/08 01:38:13;;;;;;;1.73;0.93;;;12.70;88.80;;;;;;5080061;28;20028;-88
2022/08/08 01:40:55;;;;;;;1.38;0.82;;;12.60;89.90;;;;;;5074044;28;20019;-87
2022/08/08 01:43:43;;;;;;;1.90;1.10;;;12.60;90.40;;;;;;5082181;28;20399;-87
2022/08/08 01:46:23;;;;;;;0.90;0.90;;;12.50;90.40;;;;;;5083474;28;20162;-87
2022/08/08 01:48:58;;;;;;;1.90;0.90;;;12.50;90.80;;;;;;5079440;28;20021;-87
2022/08/08 01:51:35;;;;;;;3.33;0.85;;;12.40;91.50;;;;;;5091851;28;20380;-87
2022/08/08 01:54:22;;;;;;;3.85;1.00;;;12.40;92.10;;;;;;5091154;28;20074;-87
2022/08/08 01:57:06;;;;;;;2.95;0.95;;;12.30;91.80;;;;;;5073689;28;20089;-89
2022/08/08 01:59:47;;;;;;;2.45;1.02;;;12.20;92.00;;;;;;5070711;28;20024;-88
2022/08/08 02:02:24;;;;;;;1.10;0.90;;;12.20;92.50;;;;;;5080721;28;20090;-87
2022/08/08 02:05:16;;;;;;;1.40;0.90;;;12.10;92.70;;;;;;5079489;28;20464;-87
2022/08/08 02:07:48;;;;;;;2.15;1.10;;;12.00;92.80;;;;;;5087194;28;20028;-87
2022/08/08 02:10:22;;;;;;;1.00;0.90;;;11.90;93.80;;;;;;5053019;28;20029;-88
2022/08/08 02:12:48;;;;;;;1.00;1.00;;;11.90;93.90;;;;;;5082413;28;20035;-87
2022/08/08 02:15:23;;;;;;;2.60;1.10;;;11.80;94.70;;;;;;5087224;28;20020;-90
2022/08/08 02:18:02;;;;;;;1.25;0.90;;;11.70;95.70;;;;;;5085819;28;20031;-87
2022/08/08 02:24:08;;;;;;;1.02;1.02;;;11.60;97.30;;;;;;5084099;28;20039;-86
2022/08/08 02:26:44;;;;;;;1.48;1.10;;;11.50;97.80;;;;;;5046289;28;20074;-87
2022/08/08 02:29:12;;;;;;;1.80;1.00;;;11.50;98.20;;;;;;5091058;28;20081;-87
2022/08/08 02:31:59;;;;;;;2.38;1.30;;;11.50;98.80;;;;;;5068824;28;20109;-88
2022/08/08 02:34:43;;;;;;;3.28;1.48;;;11.40;99.70;;;;;;5094774;28;20025;-86
2022/08/08 02:37:33;;;;;;;1.98;1.30;;;11.30;99.90;;;;;;5088697;28;20064;-87
2022/08/08 02:39:59;;;;;;;1.73;1.30;;;11.30;99.90;;;;;;5084644;28;20032;-87
2022/08/08 02:42:43;;;;;;;3.33;1.48;;;11.20;99.90;;;;;;5086637;28;20367;-88
2022/08/08 02:45:35;;;;;;;2.13;1.38;;;11.20;99.90;;;;;;5076501;28;20056;-87
2022/08/08 02:48:43;;;;;;;1.70;1.35;;;11.10;99.90;;;;;;5069538;28;20020;-87
2022/08/08 02:51:24;;;;;;;2.00;1.70;;;11.00;99.90;;;;;;5077810;28;20028;-87
2022/08/08 02:53:56;;;;;;;2.97;1.52;;;10.90;99.90;;;;;;5087136;28;20388;-87
2022/08/08 02:56:43;;;;;;;1.83;1.50;;;10.90;99.90;;;;;;5091998;28;20452;-87
2022/08/08 02:59:46;;;;;;;2.30;1.60;;;10.90;99.90;;;;;;5084144;28;20025;-87
2022/08/08 03:02:39;;;;;;;3.20;1.48;;;10.80;99.90;;;;;;5062832;28;20379;-88
2022/08/08 03:05:40;;;;;;;3.95;1.60;;;10.80;99.90;;;;;;5078629;28;20039;-87
2022/08/08 03:08:27;;;;;;;4.70;1.50;;;10.70;99.90;;;;;;5035302;28;20028;-87
2022/08/08 03:11:27;;;;;;;3.58;1.60;;;10.70;99.90;;;;;;5072257;28;20366;-88
2022/08/08 03:14:30;;;;;;;2.80;1.70;;;10.60;99.90;;;;;;5094122;28;20111;-87
2022/08/08 03:17:07;;;;;;;2.20;1.70;;;10.60;99.90;;;;;;5090214;28;20051;-87
2022/08/08 03:19:57;;;;;;;1.70;1.40;;;10.60;99.90;;;;;;5066028;28;20103;-87
2022/08/08 03:22:22;;;;;;;3.83;1.50;;;10.60;99.90;;;;;;5084003;28;20036;-87
2022/08/08 03:24:50;;;;;;;2.05;1.60;;;10.50;99.90;;;;;;5078676;28;20154;-88
2022/08/08 03:27:43;;;;;;;2.90;1.67;;;10.50;99.90;;;;;;5093309;28;20067;-85
2022/08/08 03:30:12;;;;;;;1.88;1.50;;;10.40;99.90;;;;;;5086557;28;20119;-85
2022/08/08 03:35:25;;;;;;;2.20;1.98;;;10.30;99.90;;;;;;5092358;28;20089;-86
2022/08/08 03:37:52;;;;;;;2.40;1.92;;;10.30;99.90;;;;;;5083614;28;20488;-86
2022/08/08 03:40:20;;;;;;;2.67;1.73;;;10.30;99.90;;;;;;5091401;28;20040;-89
2022/08/08 03:42:47;;;;;;;3.85;2.13;;;10.30;99.90;;;;;;5090657;28;20028;-86
2022/08/08 03:45:21;;;;;;;7.50;2.10;;;10.20;99.90;;;;;;5085763;28;20024;-86
2022/08/08 03:47:54;;;;;;;1.50;1.40;;;10.20;99.90;;;;;;5092493;28;20028;-87
2022/08/08 03:50:20;;;;;;;2.50;2.30;;;10.20;99.90;;;;;;5092477;28;20081;-87
2022/08/08 03:52:46;;;;;;;2.75;2.30;;;10.20;99.90;;;;;;5071668;28;20103;-88
2022/08/08 03:55:14;;;;;;;3.20;2.10;;;10.10;99.90;;;;;;5069543;28;20025;-87
2022/08/08 03:57:52;;;;;;;2.70;2.13;;;10.10;99.90;;;;;;5082281;28;20178;-87
2022/08/08 04:00:20;;;;;;;2.35;2.15;;;10.10;99.90;;;;;;5082157;28;20028;-88
2022/08/08 04:02:59;;;;;;;5.35;2.17;;;10.20;99.90;;;;;;5082453;28;20058;-89
2022/08/08 04:05:32;;;;;;;2.95;1.95;;;10.10;99.90;;;;;;5089675;28;20800;-88
2022/08/08 04:08:00;;;;;;;2.40;2.20;;;10.10;99.90;;;;;;5074904;28;20033;-88
2022/08/08 04:10:27;;;;;;;3.85;1.98;;;10.00;99.90;;;;;;5077620;28;20495;-87
2022/08/08 04:12:56;;;;;;;2.08;1.88;;;10.00;99.90;;;;;;5084280;28;20394;-87
2022/08/08 04:15:21;;;;;;;2.42;2.10;;;10.00;99.90;;;;;;5078184;28;20519;-86
2022/08/08 04:17:48;;;;;;;2.28;1.80;;;10.00;99.90;;;;;;5078541;28;20024;-88
2022/08/08 04:20:13;;;;;;;1.92;1.80;;;10.00;99.90;;;;;;5072572;28;20025;-88
2022/08/08 04:22:39;;;;;;;2.33;1.65;;;10.00;99.90;;;;;;5076237;28;20380;-87
2022/08/08 04:25:06;;;;;;;1.80;1.70;;;10.00;99.90;;;;;;5084359;28;20061;-87
2022/08/08 04:27:33;;;;;;;2.30;2.10;;;10.00;99.90;;;;;;5080778;28;20033;-86
2022/08/08 04:30:00;;;;;;;3.75;1.80;;;10.00;99.90;;;;;;5072368;28;20083;-88
2022/08/08 04:32:26;;;;;;;2.30;1.70;;;10.00;99.90;;;;;;5071544;28;20058;-86
2022/08/08 04:34:52;;;;;;;2.40;1.95;;;10.10;99.90;;;;;;5092872;28;20044;-87
2022/08/08 04:37:17;;;;;;;2.97;1.77;;;10.10;99.90;;;;;;5086140;28;20384;-86
2022/08/08 04:39:44;;;;;;;2.08;1.88;;;10.10;99.90;;;;;;5089486;28;20484;-87
2022/08/08 04:42:09;;;;;;;2.90;1.80;;;10.10;99.90;;;;;;5080388;28;20035;-88
2022/08/08 04:44:35;;;;;;;3.15;1.92;;;10.20;99.90;;;;;;5071295;28;20025;-88
2022/08/08 04:47:01;;;;;;;2.78;2.10;;;10.20;99.90;;;;;;5081704;28;20028;-87
2022/08/08 04:49:27;;;;;;;1.98;1.88;;;10.30;99.90;;;;;;5092156;28;20031;-88
2022/08/08 04:51:52;;;;;;;2.50;1.90;;;10.30;99.90;;;;;;5088985;28;20060;-86
2022/08/08 04:54:18;;;;;;;4.18;2.25;;;10.40;99.90;;;;;;5083709;28;20040;-86
2022/08/08 04:56:44;;;;;;;3.03;2.35;;;10.50;99.90;;;;;;5089370;28;20031;-87
2022/08/08 04:59:09;;;;;;;4.43;2.28;;;10.60;99.90;;;;;;5086112;28;20028;-87
2022/08/08 05:01:35;;;;;;;4.10;1.80;;;10.60;99.90;;;;;;5072740;28;20522;-86
2022/08/08 05:04:01;;;;;;;2.55;1.85;;;10.70;99.90;;;;;;5089277;28;20028;-86
2022/08/08 05:06:26;;;;;;;1.85;1.73;;;10.80;99.90;;;;;;5071652;28;20032;-87
2022/08/08 05:08:52;;;;;;;1.90;1.80;;;10.90;99.90;;;;;;5091409;28;20032;-88
2022/08/08 05:11:19;;;;;;;6.05;1.83;;;11.20;99.90;;;;;;5086788;28;20028;-87
2022/08/08 05:13:45;;;;;;;2.10;1.58;;;11.60;99.90;;;;;;5087862;28;20353;-87
2022/08/08 05:16:11;;;;;;;2.25;1.48;;;12.20;99.90;;;;;;5082190;28;20085;-88
2022/08/08 05:18:36;;;;;;;2.85;1.17;;;13.10;99.90;;;;;;5076143;28;20091;-86
2022/08/08 05:21:04;;;;;;;2.42;1.65;;;14.30;99.90;;;;;;5084657;28;20036;-87
2022/08/08 05:23:30;;;;;;;1.50;1.40;;;15.70;99.50;;;;;;5088528;28;20028;-88
2022/08/08 05:25:56;;;;;;;1.13;1.02;;;16.70;92.60;;;;;;5073404;28;20027;-89
2022/08/08 05:28:22;;;;;;;2.13;0.90;;;17.80;87.80;;;;;;5068358;28;20028;-88
2022/08/08 05:30:48;;;;;;;1.73;0.90;;;18.80;80.80;;;;;;5091995;28;20077;-88
2022/08/08 05:33:14;;;;;;;1.30;1.00;;;19.60;75.40;;;;;;5086210;28;20051;-88
2022/08/08 05:35:45;;;;;;;3.08;1.00;;;20.60;73.50;;;;;;5085342;28;20043;-88
2022/08/08 05:38:15;;;;;;;1.10;1.00;;;21.40;66.60;;;;;;5074578;28;20503;-89
2022/08/08 05:40:49;;;;;;;1.57;0.87;;;22.00;64.50;;;;;;5086350;28;20055;-88
2022/08/08 05:43:30;;;;;;;0.95;0.80;;;22.90;60.00;;;;;;5091894;28;20060;-87
2022/08/08 05:45:58;;;;;;;5.50;1.00;;;23.80;58.90;;;;;;5089508;28;20081;-88
2022/08/08 05:48:24;;;;;;;5.22;0.90;;;24.50;56.70;;;;;;5088098;28;20661;-88
2022/08/08 05:50:51;;;;;;;1.13;0.70;;;25.00;54.30;;;;;;5090232;28;20062;-90
2022/08/08 05:53:17;;;;;;;3.10;0.80;;;25.30;52.00;;;;;;5073190;28;20036;-89
2022/08/08 05:55:44;;;;;;;2.13;0.80;;;26.00;51.00;;;;;;5074124;28;20020;-90
2022/08/08 05:58:12;;;;;;;0.90;0.80;;;25.90;50.70;;;;;;5091560;28;20092;-88
2022/08/08 06:00:37;;;;;;;0.90;0.90;;;26.60;49.10;;;;;;5086880;28;20028;-89
2022/08/08 06:03:12;;;;;;;1.15;0.50;;;27.20;49.00;;;;;;5076912;28;20094;-90
2022/08/08 06:05:57;;;;;;;0.77;0.63;;;27.50;45.90;;;;;;5090652;28;20249;-89
2022/08/08 06:08:33;;;;;;;1.02;0.70;;;27.80;46.60;;;;;;5091116;28;20162;-88
2022/08/08 06:10:59;;;;;;;1.70;0.68;;;28.10;46.00;;;;;;5086004;28;20028;-89
2022/08/08 06:13:27;;;;;;;2.65;0.80;;;28.50;45.30;;;;;;5083360;28;20440;-88
2022/08/08 06:15:54;;;;;;;0.93;0.60;;;28.70;44.70;;;;;;5074879;28;20035;-88
2022/08/08 06:18:23;;;;;;;1.45;0.50;;;29.40;43.50;;;;;;5095751;28;20039;-89
2022/08/08 06:20:53;;;;;;;0.70;0.60;;;30.10;42.30;;;;;;5089121;28;20081;-87
2022/08/08 06:23:19;;;;;;;1.93;0.60;;;30.80;41.00;;;;;;5084271;28;20480;-85
2022/08/08 06:25:52;;;;;;;1.50;0.70;;;31.20;40.30;;;;;;5085276;28;20406;-87
2022/08/08 06:28:25;;;;;;;1.60;0.73;;;31.60;39.90;;;;;;5090509;28;20048;-89
2022/08/08 06:30:54;;;;;;;1.73;0.60;;;32.10;38.70;;;;;;5072322;28;20078;-87
2022/08/08 06:33:24;;;;;;;0.88;0.45;;;32.50;38.00;;;;;;5086430;28;20171;-88
2022/08/08 06:35:51;;;;;;;2.55;0.60;;;32.70;37.10;;;;;;5069262;28;20388;-89
2022/08/08 06:38:20;;;;;;;2.28;0.60;;;33.20;36.80;;;;;;5086409;28;20036;-87
2022/08/08 06:40:50;;;;;;;3.72;0.70;;;32.70;37.00;;;;;;5086703;28;20055;-88
2022/08/08 06:43:19;;;;;;;0.73;0.40;;;33.40;36.60;;;;;;5082903;28;20036;-88
2022/08/08 06:45:45;;;;;;;1.77;0.47;;;33.40;36.00;;;;;;5088241;28;20898;-87
2022/08/08 06:48:11;;;;;;;1.50;0.60;;;33.50;35.40;;;;;;5090910;28;20089;-88
2022/08/08 06:50:38;;;;;;;4.00;0.90;;;33.40;36.00;;;;;;5093736;28;20033;-88
2022/08/08 06:53:05;;;;;;;2.28;0.60;;;32.90;36.20;;;;;;5092496;28;20089;-86
2022/08/08 06:55:32;;;;;;;2.75;0.60;;;33.10;36.40;;;;;;5086232;28;20024;-86
2022/08/08 06:57:58;;;;;;;19.67;1.52;;;33.30;35.70;;;;;;5088400;28;20749;-87
2022/08/08 07:00:24;;;;;;;1.75;0.60;;;33.50;35.90;;;;;;5081880;28;20039;-87
2022/08/08 07:02:59;;;;;;;2.65;0.60;;;33.40;36.10;;;;;;5094450;28;20028;-89
2022/08/08 07:05:25;;;;;;;0.80;0.50;;;33.50;35.70;;;;;;5087686;28;20036;-89
2022/08/08 07:08:15;;;;;;;4.85;0.57;;;34.10;35.00;;;;;;5084609;28;20086;-88
2022/08/08 07:10:49;;;;;;;1.15;0.63;;;35.20;34.50;;;;;;5038298;28;20049;-89
2022/08/08 07:13:18;;;;;;;1.45;0.52;;;35.50;33.90;;;;;;5082051;28;20085;-88
2022/08/08 07:16:02;;;;;;;1.90;0.50;;;35.50;33.90;;;;;;5086877;28;20028;-89
2022/08/08 07:18:34;;;;;;;1.55;0.70;;;36.00;33.00;;;;;;5084335;28;20032;-88
2022/08/08 07:21:05;;;;;;;1.42;0.50;;;36.50;32.30;;;;;;5089045;28;20032;-88
2022/08/08 07:23:35;;;;;;;12.45;0.70;;;36.30;32.30;;;;;;5064341;28;20117;-87
2022/08/08 07:26:02;;;;;;;2.45;0.50;;;36.10;32.30;;;;;;5068753;28;20032;-87
2022/08/08 07:28:28;;;;;;;7.90;0.60;;;36.50;32.80;;;;;;5088904;28;20031;-87
2022/08/08 07:30:57;;;;;;;6.90;0.98;;;36.80;32.40;;;;;;5088224;28;20032;-86
2022/08/08 07:33:23;;;;;;;2.97;0.70;;;36.40;32.60;;;;;;5088953;28;20053;-89
2022/08/08 07:35:49;;;;;;;1.20;0.50;;;36.80;32.60;;;;;;5079276;28;20713;-88
2022/08/08 07:38:19;;;;;;;1.73;0.52;;;37.30;32.00;;;;;;5076373;28;20083;-88
2022/08/08 07:40:45;;;;;;;12.82;1.08;;;37.80;31.00;;;;;;5079495;28;20026;-88
2022/08/08 07:43:12;;;;;;;3.25;0.65;;;37.90;30.50;;;;;;5089522;28;20049;-89
2022/08/08 07:45:39;;;;;;;3.55;0.50;;;38.40;29.80;;;;;;5075701;28;20036;-89
2022/08/08 07:48:05;;;;;;;1.30;0.43;;;39.10;29.50;;;;;;5077694;28;20036;-89
2022/08/08 07:50:36;;;;;;;2.60;0.50;;;39.40;29.50;;;;;;5081847;28;20028;-89
2022/08/08 07:53:18;;;;;;;1.45;0.30;;;40.20;29.70;;;;;;5071445;28;20028;-88
2022/08/08 07:55:48;;;;;;;3.17;0.40;;;40.60;28.80;;;;;;5083789;28;20027;-89
2022/08/08 07:58:28;;;;;;;1.15;0.32;;;41.00;28.50;;;;;;5082732;28;20518;-88
2022/08/08 08:01:04;;;;;;;;;;;40.70;28.60;;;;;;5084489;28;20370;-89
2022/08/08 08:03:55;;;;;;;6.38;0.60;;;40.90;28.80;;;;;;5089701;28;19995;-88
2022/08/08 08:06:21;;;;;;;1.35;0.50;;;40.60;28.50;;;;;;5075303;28;20474;-87
2022/08/08 08:09:07;;;;;;;2.85;0.60;;;40.30;28.00;;;;;;5087257;28;20107;-88
2022/08/08 08:11:35;;;;;;;1.13;0.25;;;40.50;28.90;;;;;;5085490;28;20082;-89
2022/08/08 08:14:04;;;;;;;2.45;0.40;;;41.30;28.10;;;;;;5086852;28;20027;-88
2022/08/08 08:16:34;;;;;;;0.60;0.30;;;42.00;27.60;;;;;;5059398;28;20025;-87
2022/08/08 08:19:03;;;;;;;1.20;0.30;;;42.10;27.30;;;;;;5083276;28;20531;-88
2022/08/08 08:21:37;;;;;;;1.50;0.30;;;42.20;27.30;;;;;;5078525;28;20492;-88
2022/08/08 08:24:03;;;;;;;0.93;0.30;;;42.30;26.70;;;;;;5085808;28;20037;-89
2022/08/08 08:26:29;;;;;;;2.65;0.40;;;42.90;26.60;;;;;;5076659;28;20025;-89
2022/08/08 08:28:54;;;;;;;20.88;1.20;;;43.40;26.40;;;;;;5084604;28;20020;-89
2022/08/08 08:31:20;;;;;;;0.70;0.30;;;43.50;26.20;;;;;;5083189;28;20024;-90
2022/08/08 08:33:46;;;;;;;3.38;0.40;;;44.00;26.20;;;;;;5071089;28;20036;-89
2022/08/08 08:36:12;;;;;;;0.85;0.32;;;44.20;25.50;;;;;;5069869;28;20083;-89
2022/08/08 08:38:39;;;;;;;70.80;4.45;;;44.10;25.60;;;;;;5083937;28;20028;-88
2022/08/08 08:41:06;;;;;;;8.55;1.30;;;43.80;26.10;;;;;;5082410;28;20039;-87
2022/08/08 08:43:35;;;;;;;13.18;0.90;;;43.30;26.10;;;;;;5085468;28;20032;-88
2022/08/08 08:46:03;;;;;;;3.03;0.43;;;43.70;26.10;;;;;;5077169;28;20149;-87
2022/08/08 08:48:30;;;;;;;2.70;0.40;;;44.10;26.10;;;;;;5083261;28;20035;-88
2022/08/08 08:50:59;;;;;;;1.30;0.38;;;44.80;25.30;;;;;;5076455;28;20102;-88
2022/08/08 08:53:25;;;;;;;0.73;0.40;;;45.40;24.50;;;;;;5080746;28;20079;-89
2022/08/08 08:55:54;;;;;;;1.40;0.30;;;45.40;24.90;;;;;;5079301;28;20024;-87
2022/08/08 08:58:34;;;;;;;3.65;0.40;;;45.40;24.50;;;;;;5086942;28;20036;-87
2022/08/08 09:01:02;;;;;;;2.58;0.60;;;45.20;24.20;;;;;;5089906;28;20021;-89
2022/08/08 09:03:29;;;;;;;1.80;0.40;;;44.20;24.60;;;;;;5084664;28;20040;-88
2022/08/08 09:05:56;;;;;;;1.98;0.40;;;43.50;25.30;;;;;;5083789;28;20029;-88
2022/08/08 09:08:24;;;;;;;1.08;0.40;;;42.90;25.10;;;;;;5083900;28;20032;-88
2022/08/08 09:10:50;;;;;;;3.30;0.43;;;42.90;26.00;;;;;;5080254;28;20016;-88
2022/08/08 09:13:17;;;;;;;9.52;0.93;;;42.50;25.70;;;;;;5078979;28;20085;-87
2022/08/08 09:15:43;;;;;;;20.65;2.03;;;42.40;25.90;;;;;;5084859;28;20033;-87
2022/08/08 09:18:10;;;;;;;3.58;0.50;;;41.90;25.80;;;;;;5071310;28;20236;-87
2022/08/08 09:20:38;;;;;;;0.50;0.38;;;41.70;25.20;;;;;;5087852;28;20035;-87
2022/08/08 09:23:04;;;;;;;42.08;3.13;;;40.20;25.40;;;;;;5062796;28;20119;-86
2022/08/08 09:25:34;;;;;;;8.30;1.10;;;39.30;26.40;;;;;;5080967;28;20828;-87
2022/08/08 09:28:00;;;;;;;22.45;1.33;;;38.70;26.50;;;;;;5086021;28;20036;-87
2022/08/08 09:30:30;;;;;;;7.68;1.17;;;38.50;26.90;;;;;;5081049;28;20468;-87
2022/08/08 09:33:02;;;;;;;2.10;0.50;;;38.50;27.20;;;;;;5080464;28;20435;-87
2022/08/08 09:35:29;;;;;;;1.10;0.40;;;38.90;26.20;;;;;;5080177;28;20089;-87
2022/08/08 09:38:00;;;;;;;0.55;0.30;;;38.50;25.80;;;;;;5085554;28;20053;-88
2022/08/08 09:40:28;;;;;;;2.70;0.40;;;38.90;26.40;;;;;;5083548;28;20062;-89
2022/08/08 09:43:06;;;;;;;27.50;1.58;;;38.90;25.80;;;;;;5078461;28;20027;-86
2022/08/08 09:45:36;;;;;;;2.53;0.50;;;39.00;27.10;;;;;;5085182;28;20032;-84
2022/08/08 09:48:03;;;;;;;14.68;1.02;;;38.50;25.90;;;;;;5080983;28;20460;-86
2022/08/08 09:50:32;;;;;;;0.70;0.50;;;38.20;27.50;;;;;;5083364;28;20028;-84
2022/08/08 09:53:02;;;;;;;1.33;0.50;;;37.70;27.70;;;;;;5081053;28;20110;-88
2022/08/08 09:55:30;;;;;;;0.57;0.45;;;37.20;27.20;;;;;;5083879;28;20035;-86
2022/08/08 09:58:19;;;;;;;1.80;0.60;;;35.60;26.80;;;;;;5082395;28;20381;-87
2022/08/08 10:00:47;;;;;;;0.47;0.30;;;34.40;28.50;;;;;;5078143;28;20041;-87
2022/08/08 10:03:15;;;;;;;1.20;0.43;;;34.60;29.20;;;;;;5062980;28;20035;-87
2022/08/08 10:05:40;;;;;;;3.35;0.45;;;34.90;28.50;;;;;;5085115;28;20032;-87
2022/08/08 10:08:06;;;;;;;11.68;0.93;;;35.20;29.90;;;;;;5081669;28;20038;-85
2022/08/08 10:10:41;;;;;;;15.90;1.30;;;35.90;29.90;;;;;;5080736;28;20104;-86
2022/08/08 10:13:20;;;;;;;1.13;0.43;;;36.50;28.70;;;;;;5083616;28;20048;-85
2022/08/08 10:15:59;;;;;;;2.42;0.35;;;36.60;28.30;;;;;;5081056;28;20529;-88
2022/08/08 10:18:30;;;;;;;1.65;0.40;;;36.80;28.20;;;;;;5079087;28;20115;-86
2022/08/08 10:21:18;;;;;;;0.82;0.47;;;36.00;29.00;;;;;;5083783;28;20433;-86
2022/08/08 10:23:49;;;;;;;0.55;0.30;;;35.90;29.70;;;;;;5084936;28;20036;-84
2022/08/08 10:26:45;;;;;;;4.32;0.35;;;36.40;28.00;;;;;;5094795;28;20040;-86
2022/08/08 10:29:12;;;;;;;1.90;0.40;;;37.00;28.50;;;;;;5081896;28;20022;-87
2022/08/08 10:34:26;;;;;;;3.00;0.38;;;38.30;27.30;;;;;;5084183;28;20158;-86
2022/08/08 10:36:52;;;;;;;1.23;1.13;;;38.80;26.60;;;;;;5080744;28;20032;-86
2022/08/08 10:39:23;;;;;;;2.80;0.73;;;39.10;26.90;;;;;;5084012;28;20099;-86
2022/08/08 10:42:04;;;;;;;0.52;0.30;;;39.30;26.10;;;;;;5079492;28;20021;-86
2022/08/08 10:44:37;;;;;;;3.33;0.47;;;39.00;26.10;;;;;;5082272;28;20033;-87
2022/08/08 10:47:18;;;;;;;2.65;0.40;;;38.50;25.30;;;;;;5078115;28;20119;-86
2022/08/08 10:50:10;;;;;;;2.88;0.40;;;36.70;26.40;;;;;;5061940;28;20542;-88
2022/08/08 10:52:40;;;;;;;1.38;0.50;;;35.30;27.40;;;;;;5065520;28;20043;-87
2022/08/08 10:55:12;;;;;;;;;;;35.20;28.70;;;;;;5063892;28;20021;-86
2022/08/08 10:57:43;;;;;;;0.57;0.30;;;35.70;28.20;;;;;;5082015;28;19928;-86
2022/08/08 11:00:11;;;;;;;1.20;0.60;;;35.80;27.20;;;;;;5085518;28;20804;-88
2022/08/08 11:02:37;;;;;;;2.40;0.55;;;34.90;27.90;;;;;;5086808;28;20043;-88
2022/08/08 11:05:07;;;;;;;0.93;0.40;;;34.50;28.10;;;;;;5085680;28;20040;-88
2022/08/08 11:07:42;;;;;;;0.55;0.50;;;34.30;28.50;;;;;;5088739;28;20052;-87
2022/08/08 11:10:35;;;;;;;1.73;0.63;;;33.10;28.30;;;;;;5084344;28;20032;-86
2022/08/08 11:13:01;;;;;;;1.90;0.57;;;32.10;30.80;;;;;;5062791;28;20047;-87
2022/08/08 11:15:28;;;;;;;1.83;0.50;;;32.30;30.10;;;;;;5083114;28;20119;-89
2022/08/08 11:17:55;;;;;;;4.20;0.75;;;32.00;31.30;;;;;;5084535;28;20384;-88
2022/08/08 11:20:26;;;;;;;2.17;0.70;;;31.40;34.10;;;;;;5081902;28;20059;-88
2022/08/08 11:22:54;;;;;;;12.88;1.63;;;31.80;32.40;;;;;;5087363;28;20020;-88
2022/08/08 11:25:25;;;;;;;0.50;0.50;;;31.70;31.80;;;;;;5072581;28;20385;-88
2022/08/08 11:27:54;;;;;;;;;;;31.70;31.60;;;;;;5082736;28;20048;-90
2022/08/08 11:30:22;;;;;;;12.00;1.35;;;31.80;32.60;;;;;;5085769;28;20295;-89
2022/08/08 11:32:52;;;;;;;9.13;0.98;;;32.10;32.00;;;;;;5096064;28;20031;-88
2022/08/08 11:35:20;;;;;;;4.18;0.88;;;32.50;31.00;;;;;;5067363;28;20033;-89
2022/08/08 11:37:46;;;;;;;1.13;0.63;;;32.50;30.50;;;;;;5085817;28;20094;-86
2022/08/08 11:40:13;;;;;;;0.60;0.50;;;32.60;31.40;;;;;;5083799;28;20511;-87
2022/08/08 11:42:46;;;;;;;2.17;1.00;;;33.40;31.30;;;;;;5065595;28;20060;-91
2022/08/08 11:45:15;;;;;;;2.88;0.50;;;34.30;30.40;;;;;;5089728;28;20024;-89
2022/08/08 11:47:41;;;;;;;12.07;0.95;;;34.90;28.90;;;;;;5068984;28;20032;-87
2022/08/08 11:50:10;;;;;;;1.50;0.35;;;34.20;28.90;;;;;;5085024;28;20115;-91
2022/08/08 11:52:37;;;;;;;1.38;0.47;;;33.90;29.00;;;;;;5098689;28;20058;-89
2022/08/08 11:55:25;;;;;;;0.90;0.60;;;33.30;29.20;;;;;;5090593;28;20038;-89
2022/08/08 11:58:09;;;;;;;40.47;2.20;;;32.80;29.70;;;;;;5093177;28;20050;-87
2022/08/08 12:00:46;;;;;;;163.93;10.85;;;33.00;30.80;;;;;;5070198;28;20031;-87
2022/08/08 12:03:18;;;;;;;3.22;0.50;;;33.50;30.50;;;;;;5081452;28;20036;-88
2022/08/08 12:05:45;;;;;;;160.90;6.55;;;33.90;29.40;;;;;;5065676;28;20043;-88
2022/08/08 12:08:14;;;;;;;28.77;2.22;;;33.80;29.90;;;;;;5081196;28;20081;-89
2022/08/08 12:10:51;;;;;;;5.47;0.88;;;33.70;29.40;;;;;;5081161;28;20052;-88
2022/08/08 12:13:24;;;;;;;21.90;1.88;;;32.30;29.50;;;;;;5077253;28;20090;-87
2022/08/08 12:15:51;;;;;;;76.40;3.42;;;31.70;31.20;;;;;;5087863;28;20028;-89
2022/08/08 12:18:25;;;;;;;1.95;0.40;;;31.80;32.00;;;;;;5083946;28;20028;-88
2022/08/08 12:20:58;;;;;;;23.02;1.20;;;31.60;30.40;;;;;;5083927;28;20165;-87
2022/08/08 12:23:32;;;;;;;5.45;0.50;;;31.10;30.60;;;;;;5065645;28;20040;-88
2022/08/08 12:26:11;;;;;;;5.03;0.73;;;30.70;31.80;;;;;;5068672;28;20116;-89
2022/08/08 12:28:37;;;;;;;12.43;1.00;;;31.00;30.90;;;;;;5084191;28;20116;-87
2022/08/08 12:31:08;;;;;;;363.02;26.27;;;31.60;33.20;;;;;;5084213;28;20462;-87
2022/08/08 12:33:50;;;;;;;9.23;1.05;;;32.20;30.30;;;;;;5085569;28;20028;-87
2022/08/08 12:36:22;;;;;;;0.88;0.40;;;32.00;29.80;;;;;;5084730;28;20032;-89
2022/08/08 12:38:50;;;;;;;4.35;0.90;;;31.60;29.60;;;;;;5054814;28;20500;-88
2022/08/08 12:41:21;;;;;;;1.20;0.50;;;31.80;31.10;;;;;;5056909;28;20058;-89
2022/08/08 12:43:48;;;;;;;1.25;0.52;;;31.60;30.00;;;;;;5089939;28;20028;-91
2022/08/08 12:46:15;;;;;;;15.60;1.13;;;31.50;30.20;;;;;;5060158;28;20396;-89
2022/08/08 12:48:53;;;;;;;3.78;0.95;;;31.30;32.10;;;;;;5078605;28;20033;-89
2022/08/08 12:51:19;;;;;;;4.35;0.70;;;31.70;32.10;;;;;;5085676;28;20043;-90
2022/08/08 12:53:59;;;;;;;36.90;2.70;;;32.30;32.10;;;;;;5080914;28;20028;-90
2022/08/08 12:56:33;;;;;;;4.15;0.63;;;32.70;31.00;;;;;;5079292;28;20536;-90
2022/08/08 12:58:59;;;;;;;0.75;0.50;;;33.10;31.40;;;;;;5064289;28;20183;-91
2022/08/08 13:01:37;;;;;;;3.83;0.50;;;33.50;29.80;;;;;;5084833;28;20031;-91
2022/08/08 13:04:17;;;;;;;1.65;0.50;;;32.90;29.60;;;;;;5062505;28;20659;-90
2022/08/08 13:07:06;;;;;;;;;;;32.40;30.10;;;;;;5075355;28;20036;-91
2022/08/08 13:09:48;;;;;;;63.50;5.20;;;31.90;31.30;;;;;;5089833;28;19946;-90
2022/08/08 13:12:25;;;;;;;39.08;1.60;;;32.20;30.80;;;;;;5089210;28;20036;-91
2022/08/08 13:14:53;;;;;;;124.82;6.20;;;32.00;32.10;;;;;;5081302;28;20042;-88
2022/08/08 13:17:29;;;;;;;22.55;1.52;;;32.40;31.80;;;;;;5086994;28;20051;-89
2022/08/08 13:19:58;;;;;;;5.78;0.73;;;32.50;31.00;;;;;;5068007;28;20440;-89
2022/08/08 13:22:24;;;;;;;4.70;0.45;;;32.90;31.70;;;;;;5071864;28;20032;-88
2022/08/08 13:24:51;;;;;;;18.27;1.63;;;33.10;29.40;;;;;;5082693;28;20048;-88
2022/08/08 13:27:19;;;;;;;5.00;0.90;;;33.20;31.00;;;;;;5080652;28;20105;-88